Aviation Digital Data Service (ADDS)

Output produced by METARs form (1241 UTC 19 January 2019)
found at http://www.aviationweather.gov/metar/data/
 
METAR text: ZUCK 191200Z 36003MPS 4000 BR SCT026 08/06 Q1022 NOSIG
Conditions at: ZUCK (CHONGQING/CHUNGK, CN) observed 1200 UTC 19 January 2019
Temperature: 8.0°C (46°F)
Dewpoint: 6.0°C (43°F) [RH = 87%]
Pressure (altimeter): 30.18 inches Hg (1022.0 mb)
Winds: from the N (360 degrees) at 7 MPH (6 knots; 3.1 m/s)
Visibility: 2.49 miles (4.01 km)
Ceiling: at least 12,000 feet AGL
Clouds: scattered clouds at 2600 feet AGL
Weather: BR  (mist)

METAR text: ZUCK 191100Z 01004MPS 3200 BR SCT020 09/06 Q1021 NOSIG
Conditions at: ZUCK (CHONGQING/CHUNGK, CN) observed 1100 UTC 19 January 2019
Temperature: 9.0°C (48°F)
Dewpoint: 6.0°C (43°F) [RH = 81%]
Pressure (altimeter): 30.15 inches Hg (1021.0 mb)
Winds: from the N (10 degrees) at 9 MPH (8 knots; 4.1 m/s)
Visibility: 1.99 miles (3.20 km)
Ceiling: at least 12,000 feet AGL
Clouds: scattered clouds at 2000 feet AGL
Weather: BR  (mist)

METAR text: ZUCK 191000Z 03003MPS 3200 BR SCT020 09/06 Q1020 NOSIG
Conditions at: ZUCK (CHONGQING/CHUNGK, CN) observed 1000 UTC 19 January 2019
Temperature: 9.0°C (48°F)
Dewpoint: 6.0°C (43°F) [RH = 81%]
Pressure (altimeter): 30.12 inches Hg (1020.0 mb)
Winds: from the NNE (30 degrees) at 7 MPH (6 knots; 3.1 m/s)
Visibility: 1.99 miles (3.20 km)
Ceiling: at least 12,000 feet AGL
Clouds: scattered clouds at 2000 feet AGL
Weather: BR  (mist)

METAR text: ZUCK 190900Z 07002MPS 030V100 3200 BR SCT020 10/06 Q1019 NOSIG
Conditions at: ZUCK (CHONGQING/CHUNGK, CN) observed 0900 UTC 19 January 2019
Temperature: 10.0°C (50°F)
Dewpoint: 6.0°C (43°F) [RH = 76%]
Pressure (altimeter): 30.09 inches Hg (1019.0 mb)
Winds: from the ENE (70 degrees) at 5 MPH (4 knots; 2.1 m/s)
Visibility: 1.99 miles (3.20 km)
Ceiling: at least 12,000 feet AGL
Clouds: scattered clouds at 2000 feet AGL
Weather: BR  (mist)

METAR text: ZUCK 190800Z 12002MPS 080V160 2800 BR SCT020 09/06 Q1019 BECMG TL0900 3000
Conditions at: ZUCK (CHONGQING/CHUNGK, CN) observed 0800 UTC 19 January 2019
Temperature: 9.0°C (48°F)
Dewpoint: 6.0°C (43°F) [RH = 81%]
Pressure (altimeter): 30.09 inches Hg (1019.0 mb)
Winds: from the ESE (120 degrees) at 5 MPH (4 knots; 2.1 m/s)
Visibility: 1.74 miles (2.80 km)
Ceiling: at least 12,000 feet AGL
Clouds: scattered clouds at 2000 feet AGL
Weather: BR  (mist)

METAR text: ZUCK 190700Z 13002MPS 090V160 2200 BR SCT014 OVC043 09/07 Q1019 BECMG TL0840 3000
Conditions at: ZUCK (CHONGQING/CHUNGK, CN) observed 0700 UTC 19 January 2019
Temperature: 9.0°C (48°F)
Dewpoint: 7.0°C (45°F) [RH = 87%]
Pressure (altimeter): 30.09 inches Hg (1019.0 mb)
Winds: from the SE (130 degrees) at 5 MPH (4 knots; 2.1 m/s)
Visibility: 1.37 miles (2.20 km)
Ceiling: 4300 feet AGL
Clouds: scattered clouds at 1400 feet AGL
overcast cloud deck at 4300 feet AGL
Weather: BR  (mist)

METAR text: ZUCK 190600Z 16002MPS 1800 -RA BR FEW008 SCT018 OVC043 08/06 Q1020 NOSIG
Conditions at: ZUCK (CHONGQING/CHUNGK, CN) observed 0600 UTC 19 January 2019
Temperature: 8.0°C (46°F)
Dewpoint: 6.0°C (43°F) [RH = 87%]
Pressure (altimeter): 30.12 inches Hg (1020.0 mb)
Winds: from the SSE (160 degrees) at 5 MPH (4 knots; 2.1 m/s)
Visibility: 1.12 miles (1.80 km)
Ceiling: 4300 feet AGL
Clouds: few clouds at 800 feet AGL
scattered clouds at 1800 feet AGL
overcast cloud deck at 4300 feet AGL
Weather: -RA BR  (light rain, mist)

METAR text: ZUCK 190500Z VRB01MPS 2800 BR FEW013 SCT023 OVC050 08/06 Q1021 NOSIG
Conditions at: ZUCK (CHONGQING/CHUNGK, CN) observed 0500 UTC 19 January 2019
Temperature: 8.0°C (46°F)
Dewpoint: 6.0°C (43°F) [RH = 87%]
Pressure (altimeter): 30.15 inches Hg (1021.0 mb)
Winds: variable direction winds at 2 MPH (2 knots; 1.0 m/s)
Visibility: 1.74 miles (2.80 km)
Ceiling: 5000 feet AGL
Clouds: few clouds at 1300 feet AGL
scattered clouds at 2300 feet AGL
overcast cloud deck at 5000 feet AGL
Weather: BR  (mist)

METAR text: ZUCK 190400Z VRB01MPS 2800 BR FEW015 SCT023 OVC050 08/05 Q1023 NOSIG
Conditions at: ZUCK (CHONGQING/CHUNGK, CN) observed 0400 UTC 19 January 2019
Temperature: 8.0°C (46°F)
Dewpoint: 5.0°C (41°F) [RH = 81%]
Pressure (altimeter): 30.21 inches Hg (1023.0 mb)
Winds: variable direction winds at 2 MPH (2 knots; 1.0 m/s)
Visibility: 1.74 miles (2.80 km)
Ceiling: 5000 feet AGL
Clouds: few clouds at 1500 feet AGL
scattered clouds at 2300 feet AGL
overcast cloud deck at 5000 feet AGL
Weather: BR  (mist)

METAR text: ZUCK 190300Z 19002MPS 160V220 2800 BR BCFG FEW015 SCT023 OVC050 09/06 Q1023 BECMG TL0430 3200
Conditions at: ZUCK (CHONGQING/CHUNGK, CN) observed 0300 UTC 19 January 2019
Temperature: 9.0°C (48°F)
Dewpoint: 6.0°C (43°F) [RH = 81%]
Pressure (altimeter): 30.21 inches Hg (1023.0 mb)
Winds: from the S (190 degrees) at 5 MPH (4 knots; 2.1 m/s)
Visibility: 1.74 miles (2.80 km)
Ceiling: 5000 feet AGL
Clouds: few clouds at 1500 feet AGL
scattered clouds at 2300 feet AGL
overcast cloud deck at 5000 feet AGL
Weather: BR BCFG  (mist, patches of fog)

METAR text: ZUCK 190200Z 24002MPS 210V310 3000 BR FEW015 SCT023 OVC050 08/06 Q1023 NOSIG
Conditions at: ZUCK (CHONGQING/CHUNGK, CN) observed 0200 UTC 19 January 2019
Temperature: 8.0°C (46°F)
Dewpoint: 6.0°C (43°F) [RH = 87%]
Pressure (altimeter): 30.21 inches Hg (1023.0 mb)
Winds: from the WSW (240 degrees) at 5 MPH (4 knots; 2.1 m/s)
Visibility: 1.86 miles (2.99 km)
Ceiling: 5000 feet AGL
Clouds: few clouds at 1500 feet AGL
scattered clouds at 2300 feet AGL
overcast cloud deck at 5000 feet AGL
Weather: BR  (mist)

METAR text: ZUCK 190100Z 27002MPS 240V320 3000 BR FEW015 SCT023 OVC050 08/05 Q1022 NOSIG
Conditions at: ZUCK (CHONGQING/CHUNGK, CN) observed 0100 UTC 19 January 2019
Temperature: 8.0°C (46°F)
Dewpoint: 5.0°C (41°F) [RH = 81%]
Pressure (altimeter): 30.18 inches Hg (1022.0 mb)
Winds: from the W (270 degrees) at 5 MPH (4 knots; 2.1 m/s)
Visibility: 1.86 miles (2.99 km)
Ceiling: 5000 feet AGL
Clouds: few clouds at 1500 feet AGL
scattered clouds at 2300 feet AGL
overcast cloud deck at 5000 feet AGL
Weather: BR  (mist)

METAR text: ZUCK 190000Z 25002MPS 210V320 4500 BR SCT026 OVC040 08/05 Q1022 NOSIG
Conditions at: ZUCK (CHONGQING/CHUNGK, CN) observed 0000 UTC 19 January 2019
Temperature: 8.0°C (46°F)
Dewpoint: 5.0°C (41°F) [RH = 81%]
Pressure (altimeter): 30.18 inches Hg (1022.0 mb)
Winds: from the WSW (250 degrees) at 5 MPH (4 knots; 2.1 m/s)
Visibility: 2.80 miles (4.51 km)
Ceiling: 4000 feet AGL
Clouds: scattered clouds at 2600 feet AGL
overcast cloud deck at 4000 feet AGL
Weather: BR  (mist)

METAR text: ZUCK 182300Z 26002MPS 220V310 4500 BR FEW015 SCT030 OVC046 08/06 Q1021 NOSIG
Conditions at: ZUCK (CHONGQING/CHUNGK, CN) observed 2300 UTC 18 January 2019
Temperature: 8.0°C (46°F)
Dewpoint: 6.0°C (43°F) [RH = 87%]
Pressure (altimeter): 30.15 inches Hg (1021.0 mb)
Winds: from the W (260 degrees) at 5 MPH (4 knots; 2.1 m/s)
Visibility: 2.80 miles (4.51 km)
Ceiling: 4600 feet AGL
Clouds: few clouds at 1500 feet AGL
scattered clouds at 3000 feet AGL
overcast cloud deck at 4600 feet AGL
Weather: BR  (mist)

METAR text: ZUCK 182200Z 27002MPS 230V330 4500 BR SCT026 OVC040 08/05 Q1020 NOSIG
Conditions at: ZUCK (CHONGQING/CHUNGK, CN) observed 2200 UTC 18 January 2019
Temperature: 8.0°C (46°F)
Dewpoint: 5.0°C (41°F) [RH = 81%]
Pressure (altimeter): 30.12 inches Hg (1020.0 mb)
Winds: from the W (270 degrees) at 5 MPH (4 knots; 2.1 m/s)
Visibility: 2.80 miles (4.51 km)
Ceiling: 4000 feet AGL
Clouds: scattered clouds at 2600 feet AGL
overcast cloud deck at 4000 feet AGL
Weather: BR  (mist)

METAR text: ZUCK 182100Z 28002MPS 250V310 4000 BR FEW026 OVC040 08/06 Q1020 NOSIG
Conditions at: ZUCK (CHONGQING/CHUNGK, CN) observed 2100 UTC 18 January 2019
Temperature: 8.0°C (46°F)
Dewpoint: 6.0°C (43°F) [RH = 87%]
Pressure (altimeter): 30.12 inches Hg (1020.0 mb)
Winds: from the W (280 degrees) at 5 MPH (4 knots; 2.1 m/s)
Visibility: 2.49 miles (4.01 km)
Ceiling: 4000 feet AGL
Clouds: few clouds at 2600 feet AGL
overcast cloud deck at 4000 feet AGL
Weather: BR  (mist)

METAR text: ZUCK 182000Z 00000MPS 3000 R02L/P2000 R02R/P2000 R03/0450 BR BCFG FEW002 SCT013 OVC040 07/07 Q1020 NOSIG
Conditions at: ZUCK (CHONGQING/CHUNGK, CN) observed 2000 UTC 18 January 2019
Temperature: 7.0°C (45°F)
Dewpoint: 7.0°C (45°F) [RH = 100%]
Pressure (altimeter): 30.12 inches Hg (1020.0 mb)
Winds: calm
Visibility: 1.86 miles (2.99 km)
Ceiling: 4000 feet AGL
Clouds: few clouds at 200 feet AGL
scattered clouds at 1300 feet AGL
overcast cloud deck at 4000 feet AGL
Weather: BCFG BR  (patches of fog, mist)

METAR text: ZUCK 181900Z VRB01MPS 1200 R02L/1000 R02R/2000 R03/0650 BR BCFG FEW002 SCT016 OVC040 07/07 Q1021 NOSIG
Conditions at: ZUCK (CHONGQING/CHUNGK, CN) observed 1900 UTC 18 January 2019
Temperature: 7.0°C (45°F)
Dewpoint: 7.0°C (45°F) [RH = 100%]
Pressure (altimeter): 30.15 inches Hg (1021.0 mb)
Winds: variable direction winds at 2 MPH (2 knots; 1.0 m/s)
Visibility: 0.75 miles (1.21 km)
Ceiling: 4000 feet AGL
Clouds: few clouds at 200 feet AGL
scattered clouds at 1600 feet AGL
overcast cloud deck at 4000 feet AGL
Weather: BCFG BR  (patches of fog, mist)

METAR text: ZUCK 181800Z 19001MPS 2000 R02L/P2000 R02R/P2000 R03/0225 BR BCFG FEW002 SCT016 OVC040 07/07 Q1020 NOSIG
Conditions at: ZUCK (CHONGQING/CHUNGK, CN) observed 1800 UTC 18 January 2019
Temperature: 7.0°C (45°F)
Dewpoint: 7.0°C (45°F) [RH = 100%]
Pressure (altimeter): 30.12 inches Hg (1020.0 mb)
Winds: from the S (190 degrees) at 2 MPH (2 knots; 1.0 m/s)
Visibility: 1.24 miles (2.00 km)
Ceiling: 4000 feet AGL
Clouds: few clouds at 200 feet AGL
scattered clouds at 1600 feet AGL
overcast cloud deck at 4000 feet AGL
Weather: BCFG BR  (patches of fog, mist)

METAR text: ZUCK 181700Z 18001MPS 3000 R02L/P2000 R02R/P2000 R03/0400 BR BCFG FEW002 SCT015 OVC040 07/07 Q1020 NOSIG
Conditions at: ZUCK (CHONGQING/CHUNGK, CN) observed 1700 UTC 18 January 2019
Temperature: 7.0°C (45°F)
Dewpoint: 7.0°C (45°F) [RH = 100%]
Pressure (altimeter): 30.12 inches Hg (1020.0 mb)
Winds: from the S (180 degrees) at 2 MPH (2 knots; 1.0 m/s)
Visibility: 1.86 miles (2.99 km)
Ceiling: 4000 feet AGL
Clouds: few clouds at 200 feet AGL
scattered clouds at 1500 feet AGL
overcast cloud deck at 4000 feet AGL
Weather: BCFG BR  (patches of fog, mist)

METAR text: ZUCK 181500Z 00000MPS 3300 R02L/P2000 R02R/P2000 R03/0500 -RA BR SCT015 OVC040 07/06 Q1020 NOSIG
Conditions at: ZUCK (CHONGQING/CHUNGK, CN) observed 1500 UTC 18 January 2019
Temperature: 7.0°C (45°F)
Dewpoint: 6.0°C (43°F) [RH = 93%]
Pressure (altimeter): 30.12 inches Hg (1020.0 mb)
Winds: calm
Visibility: 2.05 miles (3.30 km)
Ceiling: 4000 feet AGL
Clouds: scattered clouds at 1500 feet AGL
overcast cloud deck at 4000 feet AGL
Weather: -RA BR  (light rain, mist)

METAR text: ZUCK 181400Z 35002MPS 3500 -RA BR SCT015 SCT023 OVC050 07/07 Q1020 NOSIG
Conditions at: ZUCK (CHONGQING/CHUNGK, CN) observed 1400 UTC 18 January 2019
Temperature: 7.0°C (45°F)
Dewpoint: 7.0°C (45°F) [RH = 100%]
Pressure (altimeter): 30.12 inches Hg (1020.0 mb)
Winds: from the N (350 degrees) at 5 MPH (4 knots; 2.1 m/s)
Visibility: 2.17 miles (3.49 km)
Ceiling: 5000 feet AGL
Clouds: scattered clouds at 1500 feet AGL
scattered clouds at 2300 feet AGL
overcast cloud deck at 5000 feet AGL
Weather: -RA BR  (light rain, mist)

METAR text: ZUCK 181300Z 01001MPS 6000 SCT020 OVC050 08/05 Q1019 NOSIG
Conditions at: ZUCK (CHONGQING/CHUNGK, CN) observed 1300 UTC 18 January 2019
Temperature: 8.0°C (46°F)
Dewpoint: 5.0°C (41°F) [RH = 81%]
Pressure (altimeter): 30.09 inches Hg (1019.0 mb)
Winds: from the N (10 degrees) at 2 MPH (2 knots; 1.0 m/s)
Visibility: 4 miles ( 6 km)
Ceiling: 5000 feet AGL
Clouds: scattered clouds at 2000 feet AGL
overcast cloud deck at 5000 feet AGL
Weather: no significant weather observed at this time

METAR text: ZUCK 181200Z 02002MPS 6000 SCT020 09/05 Q1018 NOSIG
Conditions at: ZUCK (CHONGQING/CHUNGK, CN) observed 1200 UTC 18 January 2019
Temperature: 9.0°C (48°F)
Dewpoint: 5.0°C (41°F) [RH = 76%]
Pressure (altimeter): 30.06 inches Hg (1018.0 mb)
Winds: from the NNE (20 degrees) at 5 MPH (4 knots; 2.1 m/s)
Visibility: 4 miles ( 6 km)
Ceiling: at least 12,000 feet AGL
Clouds: scattered clouds at 2000 feet AGL
Weather: no significant weather observed at this time

METAR text: ZUCK 181100Z 36002MPS 6000 FEW020 09/05 Q1017 NOSIG
Conditions at: ZUCK (CHONGQING/CHUNGK, CN) observed 1100 UTC 18 January 2019
Temperature: 9.0°C (48°F)
Dewpoint: 5.0°C (41°F) [RH = 76%]
Pressure (altimeter): 30.03 inches Hg (1017.0 mb)
Winds: from the N (360 degrees) at 5 MPH (4 knots; 2.1 m/s)
Visibility: 4 miles ( 6 km)
Ceiling: at least 12,000 feet AGL
Clouds: few clouds at 2000 feet AGL
Weather: no significant weather observed at this time

METAR text: ZUCK 181000Z 01002MPS 6000 FEW020 09/05 Q1017 NOSIG
Conditions at: ZUCK (CHONGQING/CHUNGK, CN) observed 1000 UTC 18 January 2019
Temperature: 9.0°C (48°F)
Dewpoint: 5.0°C (41°F) [RH = 76%]
Pressure (altimeter): 30.03 inches Hg (1017.0 mb)
Winds: from the N (10 degrees) at 5 MPH (4 knots; 2.1 m/s)
Visibility: 4 miles ( 6 km)
Ceiling: at least 12,000 feet AGL
Clouds: few clouds at 2000 feet AGL
Weather: no significant weather observed at this time

METAR text: ZUCK 180900Z VRB01MPS 5000 FEW023 09/05 Q1016 NOSIG
Conditions at: ZUCK (CHONGQING/CHUNGK, CN) observed 0900 UTC 18 January 2019
Temperature: 9.0°C (48°F)
Dewpoint: 5.0°C (41°F) [RH = 76%]
Pressure (altimeter): 30.00 inches Hg (1016.0 mb)
Winds: variable direction winds at 2 MPH (2 knots; 1.0 m/s)
Visibility: 3 miles ( 5 km)
Ceiling: at least 12,000 feet AGL
Clouds: few clouds at 2300 feet AGL
Weather: no significant weather observed at this time

METAR text: ZUCK 180800Z 10002MPS 060V140 6000 FEW016 09/05 Q1016 NOSIG
Conditions at: ZUCK (CHONGQING/CHUNGK, CN) observed 0800 UTC 18 January 2019
Temperature: 9.0°C (48°F)
Dewpoint: 5.0°C (41°F) [RH = 76%]
Pressure (altimeter): 30.00 inches Hg (1016.0 mb)
Winds: from the E (100 degrees) at 5 MPH (4 knots; 2.1 m/s)
Visibility: 4 miles ( 6 km)
Ceiling: at least 12,000 feet AGL
Clouds: few clouds at 1600 feet AGL
Weather: no significant weather observed at this time

METAR text: ZUCK 180700Z 14003MPS 6000 FEW023 09/04 Q1016 NOSIG
Conditions at: ZUCK (CHONGQING/CHUNGK, CN) observed 0700 UTC 18 January 2019
Temperature: 9.0°C (48°F)
Dewpoint: 4.0°C (39°F) [RH = 71%]
Pressure (altimeter): 30.00 inches Hg (1016.0 mb)
Winds: from the SE (140 degrees) at 7 MPH (6 knots; 3.1 m/s)
Visibility: 4 miles ( 6 km)
Ceiling: at least 12,000 feet AGL
Clouds: few clouds at 2300 feet AGL
Weather: no significant weather observed at this time

METAR text: ZUCK 180600Z 13002MPS 080V180 6000 FEW026 09/04 Q1017 NOSIG
Conditions at: ZUCK (CHONGQING/CHUNGK, CN) observed 0600 UTC 18 January 2019
Temperature: 9.0°C (48°F)
Dewpoint: 4.0°C (39°F) [RH = 71%]
Pressure (altimeter): 30.03 inches Hg (1017.0 mb)
Winds: from the SE (130 degrees) at 5 MPH (4 knots; 2.1 m/s)
Visibility: 4 miles ( 6 km)
Ceiling: at least 12,000 feet AGL
Clouds: few clouds at 2600 feet AGL
Weather: no significant weather observed at this time

METAR text: ZUCK 180500Z VRB01MPS 6000 SCT026 09/04 Q1018 NOSIG
Conditions at: ZUCK (CHONGQING/CHUNGK, CN) observed 0500 UTC 18 January 2019
Temperature: 9.0°C (48°F)
Dewpoint: 4.0°C (39°F) [RH = 71%]
Pressure (altimeter): 30.06 inches Hg (1018.0 mb)
Winds: variable direction winds at 2 MPH (2 knots; 1.0 m/s)
Visibility: 4 miles ( 6 km)
Ceiling: at least 12,000 feet AGL
Clouds: scattered clouds at 2600 feet AGL
Weather: no significant weather observed at this time

METAR text: ZUCK 180400Z 10001MPS 6000 SCT026 09/04 Q1019 NOSIG
Conditions at: ZUCK (CHONGQING/CHUNGK, CN) observed 0400 UTC 18 January 2019
Temperature: 9.0°C (48°F)
Dewpoint: 4.0°C (39°F) [RH = 71%]
Pressure (altimeter): 30.09 inches Hg (1019.0 mb)
Winds: from the E (100 degrees) at 2 MPH (2 knots; 1.0 m/s)
Visibility: 4 miles ( 6 km)
Ceiling: at least 12,000 feet AGL
Clouds: scattered clouds at 2600 feet AGL
Weather: no significant weather observed at this time

METAR text: ZUCK 180300Z 01003MPS 6000 SCT026 09/04 Q1020 NOSIG
Conditions at: ZUCK (CHONGQING/CHUNGK, CN) observed 0300 UTC 18 January 2019
Temperature: 9.0°C (48°F)
Dewpoint: 4.0°C (39°F) [RH = 71%]
Pressure (altimeter): 30.12 inches Hg (1020.0 mb)
Winds: from the N (10 degrees) at 7 MPH (6 knots; 3.1 m/s)
Visibility: 4 miles ( 6 km)
Ceiling: at least 12,000 feet AGL
Clouds: scattered clouds at 2600 feet AGL
Weather: no significant weather observed at this time

METAR text: ZUCK 180200Z 02003MPS 6000 SCT026 09/04 Q1020 NOSIG
Conditions at: ZUCK (CHONGQING/CHUNGK, CN) observed 0200 UTC 18 January 2019
Temperature: 9.0°C (48°F)
Dewpoint: 4.0°C (39°F) [RH = 71%]
Pressure (altimeter): 30.12 inches Hg (1020.0 mb)
Winds: from the NNE (20 degrees) at 7 MPH (6 knots; 3.1 m/s)
Visibility: 4 miles ( 6 km)
Ceiling: at least 12,000 feet AGL
Clouds: scattered clouds at 2600 feet AGL
Weather: no significant weather observed at this time

METAR text: ZUCK 180100Z 01003MPS 7000 SCT030 08/04 Q1019 NOSIG
Conditions at: ZUCK (CHONGQING/CHUNGK, CN) observed 0100 UTC 18 January 2019
Temperature: 8.0°C (46°F)
Dewpoint: 4.0°C (39°F) [RH = 76%]
Pressure (altimeter): 30.09 inches Hg (1019.0 mb)
Winds: from the N (10 degrees) at 7 MPH (6 knots; 3.1 m/s)
Visibility: 4 miles ( 7 km)
Ceiling: at least 12,000 feet AGL
Clouds: scattered clouds at 3000 feet AGL
Weather: no significant weather observed at this time

Forecast for: ZUCK (CHONGQING/CHUNGK, CN)
Text: TAF ZUCK 190911Z 1912/2012 05003MPS 3200 BR SCT020 OVC050 TX09/2007Z TN07/1922Z
Forecast period: 1200 to 1900 UTC 19 January 2019
Forecast type: FROM: standard forecast or significant change
Winds: from the NE (50 degrees) at 7 MPH (6 knots; 3.1 m/s)
Visibility: 1.99 miles (3.20 km)
Ceiling: 5000 feet AGL
Clouds: scattered clouds at 2000 feet AGL
overcast cloud deck at 5000 feet AGL
Weather: BR  (mist)
Text: BECMG 1919/1920 2400 -RA BR FEW002 SCT008 OVC040
Forecast period: 1900 UTC 19 January 2019 to 1200 UTC 20 January 2019
Forecast type: BECOMING: Conditions expected to become as follows by 2000 UTC 19 January 2019
Winds: from the NE (50 degrees) at 7 MPH (6 knots; 3.1 m/s)
Visibility: 1.49 miles (2.40 km)
Ceiling: 4000 feet AGL
Clouds: few clouds at 200 feet AGL
scattered clouds at 800 feet AGL
overcast cloud deck at 4000 feet AGL
Weather: -RA BR  (light rain, mist)
Text: TEMPO 1922/2002 1200 -RA BR
Forecast period: 2200 UTC 19 January 2019 to 0200 UTC 20 January 2019
Forecast type: TEMPORARY: The following changes expected for less than half the time period
Visibility: 0.75 miles (1.21 km)
Ceiling: unknown
Clouds: missing
Weather: -RA BR  (light rain, mist)